sensor_id;sensor_type;location;lat;lon;timestamp;temperature;humidity
52879;DHT22;38747;53.140;6.498;2022-07-01T00:00:55;15.40;99.90
52879;DHT22;38747;53.140;6.498;2022-07-01T00:03:20;15.40;99.90
52879;DHT22;38747;53.140;6.498;2022-07-01T00:05:46;15.50;99.90
52879;DHT22;38747;53.140;6.498;2022-07-01T00:08:11;15.50;99.90
52879;DHT22;38747;53.140;6.498;2022-07-01T00:10:37;15.50;99.90
52879;DHT22;38747;53.140;6.498;2022-07-01T00:13:03;15.50;99.90
52879;DHT22;38747;53.140;6.498;2022-07-01T00:15:28;15.50;99.90
52879;DHT22;38747;53.140;6.498;2022-07-01T00:17:54;15.50;99.90
52879;DHT22;38747;53.140;6.498;2022-07-01T00:20:20;15.50;99.90
52879;DHT22;38747;53.140;6.498;2022-07-01T00:22:46;15.40;99.90
52879;DHT22;38747;53.140;6.498;2022-07-01T00:25:11;15.50;99.90
52879;DHT22;38747;53.140;6.498;2022-07-01T00:27:40;15.50;99.90
52879;DHT22;38747;53.140;6.498;2022-07-01T00:30:06;15.50;99.90
52879;DHT22;38747;53.140;6.498;2022-07-01T00:32:32;15.50;99.90
52879;DHT22;38747;53.140;6.498;2022-07-01T00:34:58;15.50;99.90
52879;DHT22;38747;53.140;6.498;2022-07-01T00:37:23;15.50;99.90
52879;DHT22;38747;53.140;6.498;2022-07-01T00:39:49;15.50;99.90
52879;DHT22;38747;53.140;6.498;2022-07-01T00:42:14;15.50;99.90
52879;DHT22;38747;53.140;6.498;2022-07-01T00:44:40;15.50;99.90
52879;DHT22;38747;53.140;6.498;2022-07-01T00:47:07;15.50;99.90
52879;DHT22;38747;53.140;6.498;2022-07-01T00:49:34;15.50;99.90
52879;DHT22;38747;53.140;6.498;2022-07-01T00:52:00;15.50;99.90
52879;DHT22;38747;53.140;6.498;2022-07-01T00:54:25;15.50;99.90
52879;DHT22;38747;53.140;6.498;2022-07-01T00:56:51;15.50;99.90
52879;DHT22;38747;53.140;6.498;2022-07-01T00:59:17;15.50;99.90
52879;DHT22;38747;53.140;6.498;2022-07-01T01:01:43;15.50;99.90
52879;DHT22;38747;53.140;6.498;2022-07-01T01:04:09;15.50;99.90
52879;DHT22;38747;53.140;6.498;2022-07-01T01:06:34;15.50;99.90
52879;DHT22;38747;53.140;6.498;2022-07-01T01:09:00;15.50;99.90
52879;DHT22;38747;53.140;6.498;2022-07-01T01:11:25;15.50;99.90
52879;DHT22;38747;53.140;6.498;2022-07-01T01:13:51;15.50;99.90
52879;DHT22;38747;53.140;6.498;2022-07-01T01:16:20;15.50;99.90
52879;DHT22;38747;53.140;6.498;2022-07-01T01:18:46;15.50;99.90
52879;DHT22;38747;53.140;6.498;2022-07-01T01:21:11;15.50;99.90
52879;DHT22;38747;53.140;6.498;2022-07-01T01:23:37;15.50;99.90
52879;DHT22;38747;53.140;6.498;2022-07-01T01:26:03;15.50;99.90
52879;DHT22;38747;53.140;6.498;2022-07-01T01:28:28;15.50;99.90
52879;DHT22;38747;53.140;6.498;2022-07-01T01:30:54;15.50;99.90
52879;DHT22;38747;53.140;6.498;2022-07-01T01:33:20;15.50;99.90
52879;DHT22;38747;53.140;6.498;2022-07-01T01:35:45;15.40;99.90
52879;DHT22;38747;53.140;6.498;2022-07-01T01:38:11;15.40;99.90
52879;DHT22;38747;53.140;6.498;2022-07-01T01:40:36;15.40;99.90
52879;DHT22;38747;53.140;6.498;2022-07-01T01:43:02;15.40;99.90
52879;DHT22;38747;53.140;6.498;2022-07-01T01:45:28;15.40;99.90
52879;DHT22;38747;53.140;6.498;2022-07-01T01:47:53;15.40;99.90
52879;DHT22;38747;53.140;6.498;2022-07-01T01:50:19;15.40;99.90
52879;DHT22;38747;53.140;6.498;2022-07-01T01:52:45;15.40;99.90
52879;DHT22;38747;53.140;6.498;2022-07-01T01:55:11;15.30;99.90
52879;DHT22;38747;53.140;6.498;2022-07-01T01:57:36;15.30;99.90
52879;DHT22;38747;53.140;6.498;2022-07-01T02:00:03;15.30;99.90
52879;DHT22;38747;53.140;6.498;2022-07-01T02:02:29;15.30;99.90
52879;DHT22;38747;53.140;6.498;2022-07-01T02:04:55;15.30;99.90
52879;DHT22;38747;53.140;6.498;2022-07-01T02:07:20;15.30;99.90
52879;DHT22;38747;53.140;6.498;2022-07-01T02:09:46;15.30;99.90
52879;DHT22;38747;53.140;6.498;2022-07-01T02:12:11;15.30;99.90
52879;DHT22;38747;53.140;6.498;2022-07-01T02:14:37;15.30;99.90
52879;DHT22;38747;53.140;6.498;2022-07-01T02:17:02;15.30;99.90
52879;DHT22;38747;53.140;6.498;2022-07-01T02:19:28;15.30;99.90
52879;DHT22;38747;53.140;6.498;2022-07-01T02:21:53;15.30;99.90
52879;DHT22;38747;53.140;6.498;2022-07-01T02:24:19;15.20;99.90
52879;DHT22;38747;53.140;6.498;2022-07-01T02:26:45;15.20;99.90
52879;DHT22;38747;53.140;6.498;2022-07-01T02:29:10;15.20;99.90
52879;DHT22;38747;53.140;6.498;2022-07-01T02:31:36;15.20;99.90
52879;DHT22;38747;53.140;6.498;2022-07-01T02:34:01;15.20;99.90
52879;DHT22;38747;53.140;6.498;2022-07-01T02:36:27;15.10;99.90
52879;DHT22;38747;53.140;6.498;2022-07-01T02:38:52;15.10;99.90
52879;DHT22;38747;53.140;6.498;2022-07-01T02:41:18;15.10;99.90
52879;DHT22;38747;53.140;6.498;2022-07-01T02:43:43;15.10;99.90
52879;DHT22;38747;53.140;6.498;2022-07-01T02:46:09;15.00;99.90
52879;DHT22;38747;53.140;6.498;2022-07-01T02:48:34;15.00;99.90
52879;DHT22;38747;53.140;6.498;2022-07-01T02:51:00;15.00;99.90
52879;DHT22;38747;53.140;6.498;2022-07-01T02:53:25;15.00;99.90
52879;DHT22;38747;53.140;6.498;2022-07-01T02:55:51;15.00;99.90
52879;DHT22;38747;53.140;6.498;2022-07-01T02:58:17;14.90;99.90
52879;DHT22;38747;53.140;6.498;2022-07-01T03:00:42;15.00;99.90
52879;DHT22;38747;53.140;6.498;2022-07-01T03:03:08;15.00;99.90
52879;DHT22;38747;53.140;6.498;2022-07-01T03:05:34;14.90;99.90
52879;DHT22;38747;53.140;6.498;2022-07-01T03:07:59;14.90;99.90
52879;DHT22;38747;53.140;6.498;2022-07-01T03:10:25;14.90;99.90
52879;DHT22;38747;53.140;6.498;2022-07-01T03:12:50;14.90;99.90
52879;DHT22;38747;53.140;6.498;2022-07-01T03:15:16;15.00;99.90
52879;DHT22;38747;53.140;6.498;2022-07-01T03:17:43;14.90;99.90
52879;DHT22;38747;53.140;6.498;2022-07-01T03:20:10;14.90;99.90
52879;DHT22;38747;53.140;6.498;2022-07-01T03:22:36;14.90;99.90
52879;DHT22;38747;53.140;6.498;2022-07-01T03:25:02;14.90;99.90
52879;DHT22;38747;53.140;6.498;2022-07-01T03:27:28;14.90;99.90
52879;DHT22;38747;53.140;6.498;2022-07-01T03:29:54;14.90;99.90
52879;DHT22;38747;53.140;6.498;2022-07-01T03:32:19;14.90;99.90
52879;DHT22;38747;53.140;6.498;2022-07-01T03:34:45;14.90;99.90
52879;DHT22;38747;53.140;6.498;2022-07-01T03:37:12;14.90;99.90
52879;DHT22;38747;53.140;6.498;2022-07-01T03:39:38;14.90;99.90
52879;DHT22;38747;53.140;6.498;2022-07-01T03:42:04;14.80;99.90
52879;DHT22;38747;53.140;6.498;2022-07-01T03:44:30;14.80;99.90
52879;DHT22;38747;53.140;6.498;2022-07-01T03:46:56;14.90;99.90
52879;DHT22;38747;53.140;6.498;2022-07-01T03:49:22;14.80;99.90
52879;DHT22;38747;53.140;6.498;2022-07-01T03:51:48;14.90;99.90
52879;DHT22;38747;53.140;6.498;2022-07-01T03:54:13;14.90;99.90
52879;DHT22;38747;53.140;6.498;2022-07-01T03:56:58;14.80;99.90
52879;DHT22;38747;53.140;6.498;2022-07-01T03:59:25;14.90;99.90
52879;DHT22;38747;53.140;6.498;2022-07-01T04:01:51;14.90;99.90
52879;DHT22;38747;53.140;6.498;2022-07-01T04:04:17;14.90;99.90
52879;DHT22;38747;53.140;6.498;2022-07-01T04:06:43;14.90;99.90
52879;DHT22;38747;53.140;6.498;2022-07-01T04:09:09;14.90;99.90
52879;DHT22;38747;53.140;6.498;2022-07-01T04:11:35;14.90;99.90
52879;DHT22;38747;53.140;6.498;2022-07-01T04:14:02;14.90;99.90
52879;DHT22;38747;53.140;6.498;2022-07-01T04:16:27;14.90;99.90
52879;DHT22;38747;53.140;6.498;2022-07-01T04:18:53;14.90;99.90
52879;DHT22;38747;53.140;6.498;2022-07-01T04:21:19;14.90;99.90
52879;DHT22;38747;53.140;6.498;2022-07-01T04:24:20;15.00;99.90
52879;DHT22;38747;53.140;6.498;2022-07-01T04:26:48;15.00;99.90
52879;DHT22;38747;53.140;6.498;2022-07-01T04:29:14;14.90;99.90
52879;DHT22;38747;53.140;6.498;2022-07-01T04:31:39;14.90;99.90
52879;DHT22;38747;53.140;6.498;2022-07-01T04:34:05;15.00;99.90
52879;DHT22;38747;53.140;6.498;2022-07-01T04:36:31;14.90;99.90
52879;DHT22;38747;53.140;6.498;2022-07-01T04:38:57;15.00;99.90
52879;DHT22;38747;53.140;6.498;2022-07-01T04:41:23;15.00;99.90
52879;DHT22;38747;53.140;6.498;2022-07-01T04:44:07;15.00;99.90
52879;DHT22;38747;53.140;6.498;2022-07-01T04:46:33;15.00;99.90
52879;DHT22;38747;53.140;6.498;2022-07-01T04:48:58;15.00;99.90
52879;DHT22;38747;53.140;6.498;2022-07-01T04:51:24;15.00;99.90
52879;DHT22;38747;53.140;6.498;2022-07-01T04:53:49;15.00;99.90
52879;DHT22;38747;53.140;6.498;2022-07-01T04:56:15;15.00;99.90
52879;DHT22;38747;53.140;6.498;2022-07-01T04:58:40;15.00;99.90
52879;DHT22;38747;53.140;6.498;2022-07-01T05:01:06;15.00;99.90
52879;DHT22;38747;53.140;6.498;2022-07-01T05:03:31;15.00;99.90
52879;DHT22;38747;53.140;6.498;2022-07-01T05:05:57;15.00;99.90
52879;DHT22;38747;53.140;6.498;2022-07-01T05:08:23;15.00;99.90
52879;DHT22;38747;53.140;6.498;2022-07-01T05:10:48;15.00;99.90
52879;DHT22;38747;53.140;6.498;2022-07-01T05:13:14;15.00;99.90
52879;DHT22;38747;53.140;6.498;2022-07-01T05:15:39;15.00;99.90
52879;DHT22;38747;53.140;6.498;2022-07-01T05:18:05;15.00;99.90
52879;DHT22;38747;53.140;6.498;2022-07-01T05:20:49;14.90;99.90
52879;DHT22;38747;53.140;6.498;2022-07-01T05:23:33;14.90;99.90
52879;DHT22;38747;53.140;6.498;2022-07-01T05:25:58;15.00;99.90
52879;DHT22;38747;53.140;6.498;2022-07-01T05:28:24;15.00;99.90
52879;DHT22;38747;53.140;6.498;2022-07-01T05:30:49;15.00;99.90
52879;DHT22;38747;53.140;6.498;2022-07-01T05:33:15;15.10;99.90
52879;DHT22;38747;53.140;6.498;2022-07-01T05:35:40;15.10;99.90
52879;DHT22;38747;53.140;6.498;2022-07-01T05:38:06;15.10;99.90
52879;DHT22;38747;53.140;6.498;2022-07-01T05:40:31;15.10;99.90
52879;DHT22;38747;53.140;6.498;2022-07-01T05:42:57;15.20;99.90
52879;DHT22;38747;53.140;6.498;2022-07-01T05:45:23;15.20;99.90
52879;DHT22;38747;53.140;6.498;2022-07-01T05:47:48;15.30;99.90
52879;DHT22;38747;53.140;6.498;2022-07-01T05:50:14;15.30;99.90
52879;DHT22;38747;53.140;6.498;2022-07-01T05:52:41;15.30;99.90
52879;DHT22;38747;53.140;6.498;2022-07-01T05:55:07;15.30;99.90
52879;DHT22;38747;53.140;6.498;2022-07-01T05:57:33;15.40;99.90
52879;DHT22;38747;53.140;6.498;2022-07-01T05:59:59;15.40;99.90
52879;DHT22;38747;53.140;6.498;2022-07-01T06:02:24;15.40;99.90
52879;DHT22;38747;53.140;6.498;2022-07-01T06:04:50;15.50;99.90
52879;DHT22;38747;53.140;6.498;2022-07-01T06:07:15;15.50;99.90
52879;DHT22;38747;53.140;6.498;2022-07-01T06:09:41;15.60;99.90
52879;DHT22;38747;53.140;6.498;2022-07-01T06:12:06;15.70;99.90
52879;DHT22;38747;53.140;6.498;2022-07-01T06:14:32;15.70;99.90
52879;DHT22;38747;53.140;6.498;2022-07-01T06:16:57;15.70;99.90
52879;DHT22;38747;53.140;6.498;2022-07-01T06:19:23;15.80;99.90
52879;DHT22;38747;53.140;6.498;2022-07-01T06:21:49;15.90;99.90
52879;DHT22;38747;53.140;6.498;2022-07-01T06:24:14;15.90;99.90
52879;DHT22;38747;53.140;6.498;2022-07-01T06:26:40;15.90;99.90
52879;DHT22;38747;53.140;6.498;2022-07-01T06:29:05;15.90;99.90
52879;DHT22;38747;53.140;6.498;2022-07-01T06:31:31;15.90;99.90
52879;DHT22;38747;53.140;6.498;2022-07-01T06:34:00;15.90;99.90
52879;DHT22;38747;53.140;6.498;2022-07-01T06:36:25;16.00;99.90
52879;DHT22;38747;53.140;6.498;2022-07-01T06:38:51;16.10;99.90
52879;DHT22;38747;53.140;6.498;2022-07-01T06:41:16;16.10;99.90
52879;DHT22;38747;53.140;6.498;2022-07-01T06:43:58;16.10;99.90
52879;DHT22;38747;53.140;6.498;2022-07-01T06:46:24;16.10;99.90
52879;DHT22;38747;53.140;6.498;2022-07-01T06:48:50;16.20;99.90
52879;DHT22;38747;53.140;6.498;2022-07-01T06:51:16;16.10;99.90
52879;DHT22;38747;53.140;6.498;2022-07-01T06:53:41;16.20;99.90
52879;DHT22;38747;53.140;6.498;2022-07-01T06:56:07;16.20;99.90
52879;DHT22;38747;53.140;6.498;2022-07-01T06:58:33;16.30;99.90
52879;DHT22;38747;53.140;6.498;2022-07-01T07:00:59;16.20;99.90
52879;DHT22;38747;53.140;6.498;2022-07-01T07:03:24;16.20;99.90
52879;DHT22;38747;53.140;6.498;2022-07-01T07:05:50;16.20;99.90
52879;DHT22;38747;53.140;6.498;2022-07-01T07:08:15;16.20;99.90
52879;DHT22;38747;53.140;6.498;2022-07-01T07:10:41;16.30;99.90
52879;DHT22;38747;53.140;6.498;2022-07-01T07:13:06;16.20;99.90
52879;DHT22;38747;53.140;6.498;2022-07-01T07:15:32;16.20;99.90
52879;DHT22;38747;53.140;6.498;2022-07-01T07:17:57;16.20;99.90
52879;DHT22;38747;53.140;6.498;2022-07-01T07:20:26;16.20;99.90
52879;DHT22;38747;53.140;6.498;2022-07-01T07:22:52;16.30;99.90
52879;DHT22;38747;53.140;6.498;2022-07-01T07:25:18;16.40;99.90
52879;DHT22;38747;53.140;6.498;2022-07-01T07:27:43;16.40;99.90
52879;DHT22;38747;53.140;6.498;2022-07-01T07:30:12;16.50;99.90
52879;DHT22;38747;53.140;6.498;2022-07-01T07:32:37;16.50;99.90
52879;DHT22;38747;53.140;6.498;2022-07-01T07:35:03;16.60;99.90
52879;DHT22;38747;53.140;6.498;2022-07-01T07:37:28;16.60;99.90
52879;DHT22;38747;53.140;6.498;2022-07-01T07:39:57;16.70;99.90
52879;DHT22;38747;53.140;6.498;2022-07-01T07:42:23;16.70;99.90
52879;DHT22;38747;53.140;6.498;2022-07-01T07:44:48;16.70;99.90
52879;DHT22;38747;53.140;6.498;2022-07-01T07:47:14;16.80;99.90
52879;DHT22;38747;53.140;6.498;2022-07-01T07:49:40;16.70;99.90
52879;DHT22;38747;53.140;6.498;2022-07-01T07:52:05;16.80;99.90
52879;DHT22;38747;53.140;6.498;2022-07-01T07:54:31;16.80;99.90
52879;DHT22;38747;53.140;6.498;2022-07-01T07:56:56;16.80;99.90
52879;DHT22;38747;53.140;6.498;2022-07-01T07:59:22;16.90;99.90
52879;DHT22;38747;53.140;6.498;2022-07-01T08:01:47;16.90;99.90
52879;DHT22;38747;53.140;6.498;2022-07-01T08:04:13;17.00;99.90
52879;DHT22;38747;53.140;6.498;2022-07-01T08:06:38;17.10;99.90
52879;DHT22;38747;53.140;6.498;2022-07-01T08:09:04;17.20;99.90
52879;DHT22;38747;53.140;6.498;2022-07-01T08:11:29;17.30;99.90
52879;DHT22;38747;53.140;6.498;2022-07-01T08:13:55;17.50;99.90
52879;DHT22;38747;53.140;6.498;2022-07-01T08:16:21;17.60;99.90
52879;DHT22;38747;53.140;6.498;2022-07-01T08:18:46;17.60;99.90
52879;DHT22;38747;53.140;6.498;2022-07-01T08:21:12;17.70;99.90
52879;DHT22;38747;53.140;6.498;2022-07-01T08:23:37;17.70;99.90
52879;DHT22;38747;53.140;6.498;2022-07-01T08:26:03;17.90;99.90
52879;DHT22;38747;53.140;6.498;2022-07-01T08:28:28;17.80;99.90
52879;DHT22;38747;53.140;6.498;2022-07-01T08:30:55;17.90;99.90
52879;DHT22;38747;53.140;6.498;2022-07-01T08:33:21;17.70;99.90
52879;DHT22;38747;53.140;6.498;2022-07-01T08:35:47;17.70;99.90
52879;DHT22;38747;53.140;6.498;2022-07-01T08:38:12;17.80;99.90
52879;DHT22;38747;53.140;6.498;2022-07-01T08:40:38;17.90;99.90
52879;DHT22;38747;53.140;6.498;2022-07-01T08:43:04;17.90;99.90
52879;DHT22;38747;53.140;6.498;2022-07-01T08:45:31;17.90;99.90
52879;DHT22;38747;53.140;6.498;2022-07-01T08:47:57;17.90;99.90
52879;DHT22;38747;53.140;6.498;2022-07-01T08:50:29;18.00;99.90
52879;DHT22;38747;53.140;6.498;2022-07-01T08:52:55;18.10;99.90
52879;DHT22;38747;53.140;6.498;2022-07-01T08:55:22;18.20;99.90
52879;DHT22;38747;53.140;6.498;2022-07-01T08:57:47;18.30;99.90
52879;DHT22;38747;53.140;6.498;2022-07-01T09:00:13;18.40;99.90
52879;DHT22;38747;53.140;6.498;2022-07-01T09:02:53;18.50;99.90
52879;DHT22;38747;53.140;6.498;2022-07-01T09:05:19;18.70;99.90
52879;DHT22;38747;53.140;6.498;2022-07-01T09:07:45;18.80;99.90
52879;DHT22;38747;53.140;6.498;2022-07-01T09:10:11;19.00;99.90
52879;DHT22;38747;53.140;6.498;2022-07-01T09:12:40;19.00;99.90
52879;DHT22;38747;53.140;6.498;2022-07-01T09:15:40;19.00;99.90
52879;DHT22;38747;53.140;6.498;2022-07-01T09:20:35;18.80;99.90
52879;DHT22;38747;53.140;6.498;2022-07-01T09:23:05;18.90;99.90
52879;DHT22;38747;53.140;6.498;2022-07-01T09:25:32;18.90;99.90
52879;DHT22;38747;53.140;6.498;2022-07-01T09:28:02;19.10;99.90
52879;DHT22;38747;53.140;6.498;2022-07-01T09:30:28;19.10;99.90
52879;DHT22;38747;53.140;6.498;2022-07-01T09:33:07;19.10;99.90
52879;DHT22;38747;53.140;6.498;2022-07-01T09:35:33;19.20;99.90
52879;DHT22;38747;53.140;6.498;2022-07-01T09:37:59;19.40;99.90
52879;DHT22;38747;53.140;6.498;2022-07-01T09:40:24;19.50;99.90
52879;DHT22;38747;53.140;6.498;2022-07-01T09:42:50;19.40;99.90
52879;DHT22;38747;53.140;6.498;2022-07-01T09:45:15;19.50;99.90
52879;DHT22;38747;53.140;6.498;2022-07-01T09:47:41;19.50;99.90
52879;DHT22;38747;53.140;6.498;2022-07-01T09:50:10;19.60;99.90
52879;DHT22;38747;53.140;6.498;2022-07-01T09:52:36;19.70;99.90
52879;DHT22;38747;53.140;6.498;2022-07-01T09:55:01;19.70;99.90
52879;DHT22;38747;53.140;6.498;2022-07-01T09:57:27;19.70;99.90
52879;DHT22;38747;53.140;6.498;2022-07-01T09:59:53;19.70;99.90
52879;DHT22;38747;53.140;6.498;2022-07-01T10:02:21;19.80;99.90
52879;DHT22;38747;53.140;6.498;2022-07-01T10:04:58;19.70;99.90
52879;DHT22;38747;53.140;6.498;2022-07-01T10:12:39;19.80;99.90
52879;DHT22;38747;53.140;6.498;2022-07-01T10:15:06;19.80;99.90
52879;DHT22;38747;53.140;6.498;2022-07-01T10:17:51;20.00;99.90
52879;DHT22;38747;53.140;6.498;2022-07-01T10:20:24;20.00;99.90
52879;DHT22;38747;53.140;6.498;2022-07-01T10:22:50;20.10;99.90
52879;DHT22;38747;53.140;6.498;2022-07-01T10:31:01;20.50;99.90
52879;DHT22;38747;53.140;6.498;2022-07-01T10:35:52;20.30;99.90
52879;DHT22;38747;53.140;6.498;2022-07-01T10:38:17;20.10;99.90
52879;DHT22;38747;53.140;6.498;2022-07-01T10:40:43;20.10;99.90
52879;DHT22;38747;53.140;6.498;2022-07-01T10:43:31;20.20;99.90
52879;DHT22;38747;53.140;6.498;2022-07-01T10:45:57;20.00;99.90
52879;DHT22;38747;53.140;6.498;2022-07-01T10:48:23;20.00;99.90
52879;DHT22;38747;53.140;6.498;2022-07-01T10:50:49;20.00;99.90
52879;DHT22;38747;53.140;6.498;2022-07-01T10:53:15;20.00;99.90
52879;DHT22;38747;53.140;6.498;2022-07-01T10:55:44;20.20;99.90
52879;DHT22;38747;53.140;6.498;2022-07-01T10:58:10;20.20;99.90
52879;DHT22;38747;53.140;6.498;2022-07-01T11:00:37;20.10;99.90
52879;DHT22;38747;53.140;6.498;2022-07-01T11:03:14;19.80;99.90
52879;DHT22;38747;53.140;6.498;2022-07-01T11:05:41;19.40;99.90
52879;DHT22;38747;53.140;6.498;2022-07-01T11:08:07;19.10;99.90
52879;DHT22;38747;53.140;6.498;2022-07-01T11:10:33;18.80;99.90
52879;DHT22;38747;53.140;6.498;2022-07-01T11:12:59;18.60;99.90
52879;DHT22;38747;53.140;6.498;2022-07-01T11:15:26;18.40;99.90
52879;DHT22;38747;53.140;6.498;2022-07-01T11:17:51;18.30;99.90
52879;DHT22;38747;53.140;6.498;2022-07-01T11:20:17;18.20;99.90
52879;DHT22;38747;53.140;6.498;2022-07-01T11:22:42;18.00;99.90
52879;DHT22;38747;53.140;6.498;2022-07-01T11:25:11;18.00;99.90
52879;DHT22;38747;53.140;6.498;2022-07-01T11:27:37;18.00;99.90
52879;DHT22;38747;53.140;6.498;2022-07-01T11:30:04;18.10;99.90
52879;DHT22;38747;53.140;6.498;2022-07-01T11:32:37;18.20;99.90
52879;DHT22;38747;53.140;6.498;2022-07-01T11:35:04;18.60;99.90
52879;DHT22;38747;53.140;6.498;2022-07-01T11:37:50;19.00;99.90
52879;DHT22;38747;53.140;6.498;2022-07-01T11:40:34;19.20;99.90
52879;DHT22;38747;53.140;6.498;2022-07-01T11:42:59;19.40;99.90
52879;DHT22;38747;53.140;6.498;2022-07-01T11:45:25;19.50;99.90
52879;DHT22;38747;53.140;6.498;2022-07-01T11:47:52;19.50;99.90
52879;DHT22;38747;53.140;6.498;2022-07-01T11:50:18;19.40;99.90
52879;DHT22;38747;53.140;6.498;2022-07-01T11:52:45;19.40;99.90
52879;DHT22;38747;53.140;6.498;2022-07-01T11:55:11;19.40;99.90
52879;DHT22;38747;53.140;6.498;2022-07-01T11:57:37;19.70;99.90
52879;DHT22;38747;53.140;6.498;2022-07-01T12:00:09;19.90;99.90
52879;DHT22;38747;53.140;6.498;2022-07-01T12:02:35;20.20;99.90
52879;DHT22;38747;53.140;6.498;2022-07-01T12:05:01;20.60;99.90
52879;DHT22;38747;53.140;6.498;2022-07-01T12:07:27;21.00;99.90
52879;DHT22;38747;53.140;6.498;2022-07-01T12:09:53;21.00;99.90
52879;DHT22;38747;53.140;6.498;2022-07-01T12:12:19;20.90;99.90
52879;DHT22;38747;53.140;6.498;2022-07-01T12:14:52;21.20;99.90
52879;DHT22;38747;53.140;6.498;2022-07-01T12:17:18;21.50;99.90
52879;DHT22;38747;53.140;6.498;2022-07-01T12:19:44;21.50;99.90
52879;DHT22;38747;53.140;6.498;2022-07-01T12:22:13;21.70;99.90
52879;DHT22;38747;53.140;6.498;2022-07-01T12:24:39;21.90;99.90
52879;DHT22;38747;53.140;6.498;2022-07-01T12:27:05;22.00;99.90
52879;DHT22;38747;53.140;6.498;2022-07-01T12:32:13;22.30;99.90
52879;DHT22;38747;53.140;6.498;2022-07-01T12:34:43;22.50;99.90
52879;DHT22;38747;53.140;6.498;2022-07-01T12:37:09;22.80;99.90
52879;DHT22;38747;53.140;6.498;2022-07-01T12:42:21;22.90;99.90
52879;DHT22;38747;53.140;6.498;2022-07-01T12:44:47;23.00;99.90
52879;DHT22;38747;53.140;6.498;2022-07-01T12:49:48;23.00;99.90
52879;DHT22;38747;53.140;6.498;2022-07-01T12:52:24;22.90;99.90
52879;DHT22;38747;53.140;6.498;2022-07-01T12:54:49;23.00;99.90
52879;DHT22;38747;53.140;6.498;2022-07-01T12:57:15;23.00;99.90
52879;DHT22;38747;53.140;6.498;2022-07-01T12:59:40;22.90;99.90
52879;DHT22;38747;53.140;6.498;2022-07-01T13:02:06;23.00;99.90
52879;DHT22;38747;53.140;6.498;2022-07-01T13:04:31;23.00;99.90
52879;DHT22;38747;53.140;6.498;2022-07-01T13:06:57;22.70;99.90
52879;DHT22;38747;53.140;6.498;2022-07-01T13:09:23;22.70;99.90
52879;DHT22;38747;53.140;6.498;2022-07-01T13:11:48;22.60;99.90
52879;DHT22;38747;53.140;6.498;2022-07-01T13:14:14;22.60;99.90
52879;DHT22;38747;53.140;6.498;2022-07-01T13:16:40;22.40;99.90
52879;DHT22;38747;53.140;6.498;2022-07-01T13:19:05;22.20;99.90
52879;DHT22;38747;53.140;6.498;2022-07-01T13:21:31;22.20;99.90
52879;DHT22;38747;53.140;6.498;2022-07-01T13:23:56;22.10;99.90
52879;DHT22;38747;53.140;6.498;2022-07-01T13:26:22;22.00;99.90
52879;DHT22;38747;53.140;6.498;2022-07-01T13:28:47;21.90;99.90
52879;DHT22;38747;53.140;6.498;2022-07-01T13:31:13;21.80;99.90
52879;DHT22;38747;53.140;6.498;2022-07-01T13:33:38;21.80;99.90
52879;DHT22;38747;53.140;6.498;2022-07-01T13:36:04;21.80;99.90
52879;DHT22;38747;53.140;6.498;2022-07-01T13:38:30;21.90;99.90
52879;DHT22;38747;53.140;6.498;2022-07-01T13:40:56;21.90;99.90
52879;DHT22;38747;53.140;6.498;2022-07-01T13:43:21;22.10;99.90
52879;DHT22;38747;53.140;6.498;2022-07-01T13:45:47;22.20;99.90
52879;DHT22;38747;53.140;6.498;2022-07-01T13:48:12;22.10;99.90
52879;DHT22;38747;53.140;6.498;2022-07-01T13:50:38;22.20;99.90
52879;DHT22;38747;53.140;6.498;2022-07-01T13:53:03;22.30;99.90
52879;DHT22;38747;53.140;6.498;2022-07-01T13:55:29;22.40;99.90
52879;DHT22;38747;53.140;6.498;2022-07-01T13:57:54;22.60;99.90
52879;DHT22;38747;53.140;6.498;2022-07-01T14:00:20;22.60;99.90
52879;DHT22;38747;53.140;6.498;2022-07-01T14:02:45;22.60;99.90
52879;DHT22;38747;53.140;6.498;2022-07-01T14:05:11;22.70;99.90
52879;DHT22;38747;53.140;6.498;2022-07-01T14:07:37;22.70;99.90
52879;DHT22;38747;53.140;6.498;2022-07-01T14:10:02;22.70;99.90
52879;DHT22;38747;53.140;6.498;2022-07-01T14:12:28;22.70;99.90
52879;DHT22;38747;53.140;6.498;2022-07-01T14:14:54;22.60;99.90
52879;DHT22;38747;53.140;6.498;2022-07-01T14:17:20;22.40;99.90
52879;DHT22;38747;53.140;6.498;2022-07-01T14:19:46;22.20;99.90
52879;DHT22;38747;53.140;6.498;2022-07-01T14:22:11;22.30;99.90
52879;DHT22;38747;53.140;6.498;2022-07-01T14:24:37;22.50;99.90
52879;DHT22;38747;53.140;6.498;2022-07-01T14:27:02;22.50;99.90
52879;DHT22;38747;53.140;6.498;2022-07-01T14:29:28;22.40;99.90
52879;DHT22;38747;53.140;6.498;2022-07-01T14:31:53;22.20;99.90
52879;DHT22;38747;53.140;6.498;2022-07-01T14:34:19;22.10;99.90
52879;DHT22;38747;53.140;6.498;2022-07-01T14:36:45;22.00;99.90
52879;DHT22;38747;53.140;6.498;2022-07-01T14:39:11;21.60;99.90
52879;DHT22;38747;53.140;6.498;2022-07-01T14:41:36;21.60;99.90
52879;DHT22;38747;53.140;6.498;2022-07-01T14:44:02;21.70;99.90
52879;DHT22;38747;53.140;6.498;2022-07-01T14:46:27;21.80;99.90
52879;DHT22;38747;53.140;6.498;2022-07-01T14:48:53;21.70;99.90
52879;DHT22;38747;53.140;6.498;2022-07-01T14:51:19;21.80;99.90
52879;DHT22;38747;53.140;6.498;2022-07-01T14:53:44;21.80;99.90
52879;DHT22;38747;53.140;6.498;2022-07-01T14:56:10;21.90;99.90
52879;DHT22;38747;53.140;6.498;2022-07-01T14:58:35;22.00;99.90
52879;DHT22;38747;53.140;6.498;2022-07-01T15:01:01;22.10;99.90
52879;DHT22;38747;53.140;6.498;2022-07-01T15:03:27;22.00;99.90
52879;DHT22;38747;53.140;6.498;2022-07-01T15:05:52;21.80;99.90
52879;DHT22;38747;53.140;6.498;2022-07-01T15:08:18;21.80;99.90
52879;DHT22;38747;53.140;6.498;2022-07-01T15:10:44;21.80;99.90
52879;DHT22;38747;53.140;6.498;2022-07-01T15:13:11;21.80;99.90
52879;DHT22;38747;53.140;6.498;2022-07-01T15:15:37;21.70;99.90
52879;DHT22;38747;53.140;6.498;2022-07-01T15:18:03;21.60;99.90
52879;DHT22;38747;53.140;6.498;2022-07-01T15:20:28;21.50;99.90
52879;DHT22;38747;53.140;6.498;2022-07-01T15:22:54;21.40;99.90
52879;DHT22;38747;53.140;6.498;2022-07-01T15:25:20;21.30;99.90
52879;DHT22;38747;53.140;6.498;2022-07-01T15:27:46;21.30;99.90
52879;DHT22;38747;53.140;6.498;2022-07-01T15:30:11;21.20;99.90
52879;DHT22;38747;53.140;6.498;2022-07-01T15:32:37;21.10;99.90
52879;DHT22;38747;53.140;6.498;2022-07-01T15:35:02;21.10;99.90
52879;DHT22;38747;53.140;6.498;2022-07-01T15:37:29;21.00;99.90
52879;DHT22;38747;53.140;6.498;2022-07-01T15:39:54;21.20;99.90
52879;DHT22;38747;53.140;6.498;2022-07-01T15:42:20;21.20;99.90
52879;DHT22;38747;53.140;6.498;2022-07-01T15:44:46;21.20;99.90
52879;DHT22;38747;53.140;6.498;2022-07-01T15:47:12;21.10;99.90
52879;DHT22;38747;53.140;6.498;2022-07-01T15:49:57;21.00;99.90